Flight Track Log - Related Links

Times and Time Zones

All times are in EDT time to prevent confusion due to time zone crossing. See the AAY863 flight status page for this flight to view local times or setup timezone preferences in your user account.


Time Position Orientation Groundspeed Altitude Reporting Facility
EDT Latitude Longitude Course Direction KTS MPH feet Rate Location/Type
Sun 06:24:56 PM 41.8569 -91.8519 137° Southeast 219 252 3,900  Level Chicago Center
Sun 06:25:58 PM 41.7897 -91.8486 178° South 249 287 6,300 2,613 Climbing Chicago Center
Sun 06:27:00 PM 41.7086 -91.7792 147° Southeast 288 331 9,300 2,516 Climbing Chicago Center
Sun 06:28:02 PM 41.6394 -91.7197 147° Southeast 297 342 11,500 2,081 Climbing Chicago Center
Sun 06:29:04 PM 41.5672 -91.6575 147° Southeast 304 350 13,600 1,536 Climbing Chicago Center
Sun 06:30:00 PM 41.2812 -91.3347 137° Southeast  Level FlightAware Approximate
Sun 06:30:07 PM 41.4892 -91.5836 145° Southeast 335 386 14,700  Level Chicago Center
Sun 06:31:09 PM 41.3933 -91.4625 137° Southeast 393 452 16,100 1,500 Climbing Chicago Center
Sun 06:32:11 PM 41.3050 -91.3567 138° Southeast 424 488 17,800 1,694 Climbing Chicago Center
Sun 06:33:13 PM 41.2103 -91.2444 138° Southeast 441 507 19,600 1,645 Climbing Chicago Center
Sun 06:34:15 PM 41.1156 -91.1328 138° Southeast 453 521 21,200 1,392 Climbing Chicago Center
Sun 06:35:18 PM 41.0181 -91.0200 139° Southeast 464 534 22,500 1,306 Climbing Chicago Center
Sun 06:36:19 PM 40.9183 -90.9036 139° Southeast 473 544 23,900 1,415 Climbing Chicago Center
Sun 06:37:21 PM 40.8172 -90.7872 139° Southeast 483 556 25,400 1,536 Climbing Chicago Center
Sun 06:38:24 PM 40.6958 -90.6461 139° Southeast 485 558 27,100 1,536 Climbing Chicago Center
Sun 06:39:26 PM 40.5950 -90.5297 139° Southeast 485 558 28,600 1,210 Climbing Chicago Center
Sun 06:40:28 PM 40.4961 -90.4158 139° Southeast 480 552 29,600 1,016 Climbing Chicago Center
Sun 06:41:30 PM 40.3950 -90.3025 139° Southeast 480 552 30,700 677 Climbing Chicago Center
Sun 06:42:32 PM 40.2747 -90.1636 139° Southeast 482 555 31,000 145 Climbing Chicago Center
Sun 06:43:34 PM 40.1753 -90.0503 139° Southeast 482 555 31,000  Level Chicago Center
Sun 06:44:36 PM 40.0739 -89.9372 140° Southeast 480 552 31,000  Level Chicago Center
Sun 06:45:06 PM 40.0342 -89.8922 139° Southeast 482 555 31,000  Level Kansas City Center
Sun 06:46:09 PM 39.9350 -89.7792 139° Southeast 479 551 31,000  Level Kansas City Center
Sun 06:47:10 PM 39.8158 -89.6469 140° Southeast 475 547 31,000  Level Kansas City Center
Sun 06:48:13 PM 39.7133 -89.5414 142° Southeast 473 544 31,000  Level Kansas City Center
Sun 06:49:15 PM 39.6119 -89.4386 142° Southeast 472 543 31,000  Level Kansas City Center
Sun 06:50:16 PM 39.5108 -89.3361 142° Southeast 466 536 31,000  Level Kansas City Center
Sun 06:51:17 PM 39.4089 -89.2322 142° Southeast 466 536 31,000  Level Kansas City Center
Sun 06:52:22 PM 39.2847 -89.1056 142° Southeast 466 536 31,000  Level Kansas City Center
Sun 06:53:22 PM 39.1806 -88.9981 141° Southeast 470 541 31,000  Level Kansas City Center
Sun 06:54:27 PM 39.0794 -88.8956 142° Southeast 467 537 31,000  Level Kansas City Center
Sun 06:55:28 PM 38.9772 -88.7911 142° Southeast 463 533 31,000  Level Kansas City Center
Sun 06:56:28 PM 38.8753 -88.6883 142° Southeast 466 536 31,000  Level Kansas City Center
Sun 06:57:32 PM 38.7653 -88.5794 142° Southeast 466 536 31,000  Level Kansas City Center
Sun 06:58:35 PM 38.6633 -88.4783 142° Southeast 466 536 31,000 244 Level Kansas City Center
Sun 06:59:35 PM 38.5603 -88.3772 142° Southeast 466 536 31,500 793 Climbing Kansas City Center
Sun 07:00:36 PM 38.4381 -88.2586 143° Southeast 465 535 32,600 732 Climbing Kansas City Center
Sun 07:01:38 PM 38.3372 -88.1600 142° Southeast 463 533 33,000 190 Climbing Kansas City Center
Sun 07:02:42 PM 38.2364 -88.0614 142° Southeast 462 532 33,000  Level Kansas City Center
Sun 07:03:43 PM 38.1361 -87.9625 142° Southeast 460 529 33,000  Level Kansas City Center
Sun 07:04:45 PM 38.0358 -87.8650 143° Southeast 459 528 33,000  Level Kansas City Center
Sun 07:05:46 PM 37.9247 -87.7594 143° Southeast 456 525 33,000  Level Memphis Center
Sun 07:06:48 PM 37.8106 -87.6872 153° Southeast 457 526 33,000  Level Memphis Center
Sun 07:07:50 PM 37.6967 -87.6181 154° Southeast 450 518 33,000  Level Memphis Center
Sun 07:09:10 PM 37.5444 -87.5242 154° Southeast 453 521 33,000  Level Indianapolis Center
Sun 07:10:12 PM 37.4308 -87.4556 154° Southeast 453 521 33,000  Level Indianapolis Center
Sun 07:10:56 PM 37.3353 -87.3972 154° Southeast 451 519 33,000  Level Memphis Center
Sun 07:11:58 PM 37.2217 -87.3297 155° Southeast 451 519 33,000  Level Memphis Center
Sun 07:13:00 PM 37.1064 -87.2597 154° Southeast 451 519 33,000  Level Memphis Center
Sun 07:14:02 PM 36.9931 -87.1914 154° Southeast 451 519 33,000  Level Memphis Center
Sun 07:15:04 PM 36.8794 -87.1236 154° Southeast 451 519 33,000  Level Memphis Center
Sun 07:16:07 PM 36.7658 -87.0533 154° Southeast 451 519 33,000  Level Memphis Center
Sun 07:17:09 PM 36.6522 -86.9861 155° Southeast 450 518 33,000  Level Memphis Center
Sun 07:18:11 PM 36.5394 -86.9197 155° Southeast 449 517 33,000  Level Memphis Center
Sun 07:19:13 PM 36.4261 -86.8519 154° Southeast 447 514 33,000  Level Memphis Center
Sun 07:20:15 PM 36.2886 -86.7739 155° Southeast 448 516 33,000  Level Memphis Center
Sun 07:21:17 PM 36.1883 -86.7142 154° Southeast 449 517 33,000  Level Memphis Center
Sun 07:22:19 PM 36.0531 -86.6408 156° South 450 518 33,000  Level Memphis Center
Sun 07:23:21 PM 35.9364 -86.5839 158° South 450 518 33,000  Level Memphis Center
Sun 07:24:23 PM 35.8194 -86.5278 159° South 449 517 33,000  Level Memphis Center
Sun 07:25:25 PM 35.7028 -86.4694 158° South 449 517 33,000  Level Memphis Center
Sun 07:26:27 PM 35.5858 -86.4103 158° South 449 517 33,000  Level Memphis Center
Sun 07:27:29 PM 35.4683 -86.3547 159° South 449 517 33,000  Level Memphis Center
Sun 07:28:31 PM 35.3517 -86.2969 158° South 449 517 33,000  Level Memphis Center
Sun 07:29:33 PM 35.2172 -86.2289 158° South 448 516 33,000  Level Memphis Center
Sun 07:30:35 PM 35.1181 -86.1808 158° South 443 510 33,000  Level Memphis Center
Sun 07:31:37 PM 34.9806 -86.1136 158° South 443 510 33,000  Level Memphis Center
Sun 07:32:39 PM 34.8664 -86.0600 159° South 442 509 33,000  Level Memphis Center
Sun 07:33:42 PM 34.7606 -86.0097 159° South 443 510 33,000  Level Memphis Center
Sun 07:34:44 PM 34.6453 -85.9544 158° South 443 510 33,000  Level Memphis Center
Sun 07:35:26 PM 34.5564 -85.9103 158° South 446 513 33,000  Level Atlanta Center
Sun 07:36:26 PM 34.4425 -85.8547 158° South 446 513 33,000  Level Atlanta Center
Sun 07:37:26 PM 34.3283 -85.8047 160° South 446 513 33,000  Level Atlanta Center
Sun 07:38:26 PM 34.2144 -85.7494 158° South 446 513 33,000  Level Atlanta Center
Sun 07:39:26 PM 34.0983 -85.6969 159° South 446 513 33,000  Level Atlanta Center
Sun 07:40:26 PM 33.9842 -85.6447 159° South 446 513 33,000  Level Atlanta Center
Sun 07:41:26 PM 33.8700 -85.5925 159° South 446 513 33,000  Level Atlanta Center
Sun 07:42:26 PM 33.7539 -85.5378 159° South 446 513 33,000  Level Atlanta Center
Sun 07:43:26 PM 33.6397 -85.4836 158° South 446 513 33,000  Level Atlanta Center
Sun 07:44:26 PM 33.5275 -85.4317 159° South 446 513 33,000  Level Atlanta Center
Sun 07:45:26 PM 33.4008 -85.3725 159° South 446 513 33,000  Level Atlanta Center
Sun 07:46:26 PM 33.2825 -85.3186 159° South 446 513 33,000  Level Atlanta Center
Sun 07:47:26 PM 33.1683 -85.2647 158° South 446 513 33,000  Level Atlanta Center
Sun 07:48:26 PM 33.0789 -85.2214 158° South 446 513 33,000  Level Atlanta Center
Sun 07:49:26 PM 32.9542 -85.1678 160° South 446 513 33,000  Level Atlanta Center
Sun 07:50:26 PM 32.8272 -85.1339 167° South 439 505 33,000  Level Atlanta Center
Sun 07:51:26 PM 32.7211 -85.0906 161° South 439 505 33,000  Level Atlanta Center
Sun 07:52:26 PM 32.6108 -85.0547 165° South 431 496 33,000  Level Atlanta Center
Sun 07:53:26 PM 32.4900 -85.0117 163° South 431 496 33,000  Level Atlanta Center
Sun 07:54:26 PM 32.3692 -84.9708 164° South 440 506 33,000  Level Atlanta Center
Sun 07:55:26 PM 32.2422 -84.9353 167° South 440 506 33,000  Level Atlanta Center
Sun 07:57:03 PM 32.0697 -84.8686 162° South 445 512 33,000  Level Jacksonville Center
Sun 07:58:03 PM 31.9492 -84.8317 165° South 439 505 33,000  Level Jacksonville Center
Sun 07:59:03 PM 31.8203 -84.7900 165° South 439 505 33,000  Level Jacksonville Center
Sun 08:00:03 PM 31.7019 -84.7508 164° South 439 505 33,000  Level Jacksonville Center
Sun 08:01:03 PM 31.5856 -84.7119 164° South 434 499 33,000  Level Jacksonville Center
Sun 08:02:03 PM 31.4650 -84.6731 165° South 434 499 33,000  Level Jacksonville Center
Sun 08:03:03 PM 31.3508 -84.6344 164° South 434 499 33,000  Level Jacksonville Center
Sun 08:04:03 PM 31.2344 -84.5983 165° South 434 499 33,000  Level Jacksonville Center
Sun 08:05:03 PM 31.1181 -84.5572 163° South 434 499 33,000  Level Jacksonville Center
Sun 08:06:04 PM 31.0036 -84.5214 165° South 429 494 33,000  Level Jacksonville Center
Sun 08:07:03 PM 30.8872 -84.4806 163° South 429 494 33,000  Level Jacksonville Center
Sun 08:08:03 PM 30.7747 -84.4472 166° South 435 501 33,000  Level Jacksonville Center
Sun 08:09:03 PM 30.6564 -84.4092 165° South 430 495 33,000  Level Jacksonville Center
Sun 08:10:03 PM 30.5522 -84.3689 162° South 430 495 33,000 -50 Level Jacksonville Center
Sun 08:11:03 PM 30.4444 -84.3022 152° Southeast 430 495 32,900  Descending Jacksonville Center
Sun 08:12:03 PM 30.3408 -84.2333 150° Southeast 430 495 33,000 50 Climbing Jacksonville Center
Sun 08:13:03 PM 30.2331 -84.1692 153° Southeast 430 495 33,000  Level Jacksonville Center
Sun 08:14:03 PM 30.1228 -84.1100 155° Southeast 430 495 33,000  Level Jacksonville Center
Sun 08:15:03 PM 30.0108 -84.0489 155° Southeast 436 502 33,000  Level Jacksonville Center
Sun 08:16:04 PM 29.9006 -83.9828 153° Southeast 441 507 33,000  Level Jacksonville Center
Sun 08:18:03 PM 29.6783 -83.8344 150° Southeast 441 507 33,000 -369 Level Jacksonville Center
Sun 08:19:03 PM 29.5747 -83.7594 148° Southeast 441 507 31,900 -1,100 Descending Jacksonville Center
Sun 08:20:03 PM 29.4686 -83.6917 151° Southeast 441 507 30,800 -1,150 Descending Jacksonville Center
Sun 08:21:03 PM 29.3583 -83.6192 150° Southeast 441 507 29,600 -1,150 Descending Jacksonville Center
Sun 08:22:03 PM 29.2503 -83.5472 150° Southeast 447 514 28,500 -1,150 Descending Jacksonville Center
Sun 08:23:03 PM 29.1419 -83.4750 150° Southeast 447 514 27,300 -1,200 Descending Jacksonville Center
Sun 08:24:03 PM 29.0275 -83.4008 150° Southeast 455 524 26,100 -1,700 Descending Jacksonville Center
Sun 08:25:03 PM 28.9150 -83.3242 149° Southeast 461 531 23,900 -2,400 Descending Jacksonville Center
Sun 08:26:03 PM 28.8089 -83.2550 150° Southeast 461 531 21,300 -2,600 Descending Jacksonville Center
Sun 08:27:03 PM 28.7025 -83.1861 150° Southeast 450 518 18,700 -2,471 Descending Jacksonville Center
Sun 08:28:36 PM 28.5636 -83.0939 150° Southeast 416 479 15,000 -2,455 Descending Miami Center
Sun 08:29:37 PM 28.4675 -83.0328 151° Southeast 403 464 12,400 -2,459 Descending Miami Center
Sun 08:30:38 PM 28.3750 -82.9714 150° Southeast 387 445 10,000 -1,171 Descending Miami Center
Sun 08:31:40 PM 28.2667 -82.9000 150° Southeast 374 430 10,000 -98 Level Tampa TRACON
Sun 08:32:40 PM 28.1833 -82.8500 152° Southeast 327 376 9,800 -1,105 Descending Tampa TRACON
Sun 08:33:34 PM 28.1000 -82.8167 161° South 283 326 7,900 -2,333 Descending Tampa TRACON
Sun 08:34:28 PM 28.0333 -82.8000 168° South 284 327 5,600 -2,579 Descending Tampa TRACON
Sun 08:35:28 PM 27.9667 -82.7667 156° South 278 320 3,000 -1,667 Descending Tampa TRACON
Sun 08:36:34 PM 27.9000 -82.7500 168° South 229 264 2,100 -714 Descending Tampa TRACON
Sun 08:37:34 PM 27.8500 -82.7167 149° Southeast 182 209 1,500 -619 Descending Tampa TRACON
Sun 08:38:40 PM 27.8667 -82.6833 61° Northeast 139 160 800 -636 Descending Tampa TRACON

Login

Don't have an account? Register now (free) for customized features, flight alerts, and more!